Text Box: All records at near 07:00 local time
Kleivo 1 weather for Oct 2009
Month no. 35
Obs.
Da.
Temp. Dew Point Precip. Wind
Speed
Wind gusts Cloud cover Press. Humidity Wind dir. Sunny OPT
01.10.2009 4,3 2,5 0,0 4,8 19,3 2 1000,6 88,0 22,5   60,0 %
02.10.2009 -0,2 -0,8 0,5 0,0 1,6 10 1008,4 96,0 337,5 1 77,5 %
03.10.2009 7,7 0,4 0,0 8,0 22,5 10 986,3 60,0 180,0 1 82,5 %
04.10.2009 6,7 5,4 0,0 0,0 1,6 3 980,2 91,0 22,5 1 67,5 %
05.10.2009 2,7 2,0 0,0 0,0 4,8 3 1005,0 95,0 180,0 1 65,0 %
06.10.2009 7,2 -3,4 0,0 3,2 19,3 10 1004,3 47,0 90,0 1 85,0 %
07.10.2009 8,6 2,1 0,0 12,9 32,2 2 990,7 64,0 202,5   60,0 %
08.10.2009 6,1 4,1 0,0 14,5 24,1 2 1001,2 87,0 202,5   57,5 %
09.10.2009 0,1 -0,8 0,0 0,0 1,6 10 1019,5 94,0 0,0 1 80,0 %
10.10.2009 3,1 -3,3 0,0 9,7 16,1 10 1017,5 63,0 22,5 1 77,5 %
11.10.2009 8,0 -1,1 0,0 11,3 22,5 10 1008,7 53,0 112,5 1 80,0 %
12.10.2009 4,1 -0,7 0,0 0,0 12,9 10 1014,8 71,0 45,0 1 82,5 %
13.10.2009 -0,7 -2,0 0,0 3,2 4,8 10 1025,6 91,0 0,0 1 77,5 %
14.10.2009 3,3 -4,2 0,0 4,8 9,7 10 1030,7 58,0 67,5 1 80,0 %
15.10.2009 6,3 -3,1 0,0 4,8 9,7 10 1030,4 51,0 45,0 1 82,5 %
16.10.2009 6,9 -0,3 0,0 11,3 27,4 10 1021,6 60,0 0,0 1 77,5 %
17.10.2009 6,1 3,1 0,0 3,2 3,2 7 1027,0 81,0 337,5 1 77,5 %
18.10.2009 2,1 1,3 4,1 0,0 4,8 10 1018,8 95,0 67,5 1 77,5 %
19.10.2009 5,7 3,4 0,0 0,0 3,2 3 1008,0 85,0 315,0 1 67,5 %
20.10.2009 5,1 3,4 0,0 9,7 12,9 2 1009,7 89,0 22,5   60,0 %
21.10.2009 8,8 -2,2 0,0 1,6 8,0 10 1010,7 46,0 247,5 1 87,5 %
22.10.2009 8,7 -5,2 0,0 8,0 12,9 10 1010,4 37,0 67,5 1 82,5 %
23.10.2009 6,2 0,5 0,0 0,0 0,0 10 1012,8 67,0 157,5 1 85,0 %
24.10.2009 8,3 -2,3 0,0 1,6 8,0 10 1014,4 47,0 112,5 1 87,5 %
25.10.2009 8,1 -0,7 0,0 9,7 20,9 10 1002,6 54,0 67,5 1 82,5 %
26.10.2009 7,5 4,7 0,0 0,0 0,0 10 1005,0 82,0 337,5 1 87,5 %
27.10.2009 3,7 0,9 13,3 0,0 1,6 10 1014,4 82,0 337,5 1 72,5 %
28.10.2009 6,3 -2,6 5,6 3,2 9,7 10 1014,1 53,0 45,0 1 82,5 %
29.10.2009 6,3 4,2 0,0 0,0 0,0 10 1021,2 87,0 202,5 1 85,0 %
30.10.2009 3,9 -2,1 0,0 1,6 6,4 10 1027,7 65,0 22,5 1 82,5 %
31.10.2009 8,0 -3,2 0,0 11,3 17,7 10 1021,2 45,0 112,5 1 80,0 %
Avrg/Sum 5,5 0,0 23,5 4,5 10,9 8,2 1011,7 70,5 128,5 27 77,1 %